createdAt,value
2017-07-31T00:01:11.769Z,65.30
2017-07-31T00:03:40.030Z,64.70
2017-07-31T00:06:08.294Z,64.70
2017-07-31T00:08:36.571Z,64.60
2017-07-31T00:11:04.870Z,64.70
2017-07-31T00:13:33.880Z,65.80
2017-07-31T00:16:02.158Z,65.80
2017-07-31T00:18:30.437Z,65.70
2017-07-31T00:20:58.709Z,65.20
2017-07-31T00:23:26.961Z,63.50
2017-07-31T00:25:55.258Z,62.30
2017-07-31T00:28:23.546Z,61.40
2017-07-31T00:30:51.821Z,61.10
2017-07-31T00:33:20.083Z,60.50
2017-07-31T00:35:48.328Z,60.30
2017-07-31T00:38:16.610Z,60.20
2017-07-31T00:40:44.918Z,60.60
2017-07-31T00:43:13.170Z,60.50
2017-07-31T00:45:41.416Z,60.30
2017-07-31T00:48:10.485Z,60.70
2017-07-31T00:50:38.771Z,60.70
2017-07-31T00:53:07.054Z,60.50
2017-07-31T00:55:35.719Z,60.40
2017-07-31T00:58:03.980Z,60.50
2017-07-31T01:00:32.274Z,60.80
2017-07-31T01:03:00.590Z,61.00
2017-07-31T01:05:28.878Z,61.20
2017-07-31T01:07:57.163Z,61.40
2017-07-31T01:10:25.467Z,61.50
2017-07-31T01:12:53.758Z,61.60
2017-07-31T01:15:22.044Z,61.70
2017-07-31T01:17:50.342Z,61.60
2017-07-31T01:20:18.593Z,61.70
2017-07-31T01:22:47.637Z,62.00
2017-07-31T01:25:15.958Z,62.00
2017-07-31T01:27:44.213Z,62.10
2017-07-31T01:30:12.465Z,62.40
2017-07-31T01:32:41.051Z,62.40
2017-07-31T01:35:09.744Z,62.30
2017-07-31T01:37:40.046Z,62.50
2017-07-31T01:40:08.357Z,62.50
2017-07-31T01:42:36.613Z,62.50
2017-07-31T01:45:05.649Z,62.60
2017-07-31T01:47:33.967Z,62.60
2017-07-31T01:50:02.226Z,62.80
2017-07-31T01:52:31.195Z,63.10
2017-07-31T01:54:59.506Z,63.70
2017-07-31T01:57:27.745Z,64.00
2017-07-31T01:59:55.984Z,63.90
2017-07-31T02:02:24.287Z,63.90
2017-07-31T02:04:52.540Z,64.00
2017-07-31T02:07:20.789Z,64.50
2017-07-31T02:09:49.434Z,65.50
2017-07-31T02:12:17.723Z,64.70
2017-07-31T02:14:46.006Z,64.70
2017-07-31T02:17:14.275Z,64.80
2017-07-31T02:19:42.529Z,65.00
2017-07-31T02:22:10.814Z,65.10
2017-07-31T02:24:39.891Z,65.20
2017-07-31T02:27:08.180Z,65.10
2017-07-31T02:29:36.428Z,65.00
2017-07-31T02:32:04.729Z,65.10
2017-07-31T02:34:33.686Z,65.30
2017-07-31T02:37:01.974Z,65.60
2017-07-31T02:39:30.237Z,65.80
2017-07-31T02:41:58.491Z,65.80
2017-07-31T02:44:26.770Z,65.80
2017-07-31T02:46:56.198Z,66.20
2017-07-31T02:49:24.482Z,66.20
2017-07-31T02:51:52.730Z,66.50
2017-07-31T02:54:21.037Z,66.60
2017-07-31T02:56:50.101Z,67.10
2017-07-31T02:59:18.347Z,67.00
2017-07-31T03:01:46.609Z,66.90
2017-07-31T03:04:14.898Z,67.10
2017-07-31T03:06:43.949Z,66.90
2017-07-31T03:09:12.220Z,66.90
2017-07-31T03:11:40.469Z,66.90
2017-07-31T03:14:08.718Z,67.00
2017-07-31T03:16:37.006Z,67.60
2017-07-31T03:19:05.299Z,67.90
2017-07-31T03:21:33.556Z,67.90
2017-07-31T03:24:02.151Z,67.90
2017-07-31T03:26:30.405Z,67.80
2017-07-31T03:28:58.649Z,67.80
2017-07-31T03:31:26.912Z,68.00
2017-07-31T03:33:55.197Z,68.20
2017-07-31T03:36:23.479Z,68.10
2017-07-31T03:38:51.761Z,67.90
2017-07-31T03:41:20.801Z,67.90
2017-07-31T03:43:49.155Z,67.80
2017-07-31T03:46:17.450Z,67.80
2017-07-31T03:48:46.506Z,68.10
2017-07-31T03:51:14.781Z,68.00
2017-07-31T03:53:43.059Z,68.20
2017-07-31T03:56:12.106Z,69.70
2017-07-31T03:58:40.364Z,69.60
2017-07-31T04:01:08.964Z,69.10
2017-07-31T04:03:37.977Z,69.00
2017-07-31T04:06:06.265Z,68.90
2017-07-31T04:08:34.541Z,69.00
2017-07-31T04:11:02.789Z,69.10
2017-07-31T04:13:31.035Z,69.20
2017-07-31T04:15:59.325Z,68.60
2017-07-31T04:18:27.626Z,67.70
2017-07-31T04:20:55.888Z,66.90
2017-07-31T04:23:24.156Z,66.10
2017-07-31T04:25:52.514Z,65.40
2017-07-31T04:28:20.811Z,64.90
2017-07-31T04:30:49.090Z,64.50
2017-07-31T04:33:17.355Z,64.00
2017-07-31T04:35:46.408Z,63.70
2017-07-31T04:38:14.718Z,63.40
2017-07-31T04:40:43.005Z,63.10
2017-07-31T04:43:11.429Z,62.90
2017-07-31T04:45:40.473Z,62.60
2017-07-31T04:48:09.409Z,62.50
2017-07-31T04:50:37.657Z,62.50
2017-07-31T04:53:05.933Z,62.20
2017-07-31T04:55:34.229Z,62.10
2017-07-31T04:58:02.511Z,62.00
2017-07-31T05:00:31.597Z,62.00
2017-07-31T05:03:00.625Z,62.60
2017-07-31T05:05:28.903Z,62.50
2017-07-31T05:07:57.241Z,62.80
2017-07-31T05:10:25.496Z,62.70
2017-07-31T05:12:53.776Z,62.50
2017-07-31T05:15:22.422Z,62.40
2017-07-31T05:17:50.721Z,62.30
2017-07-31T05:20:19.054Z,62.20
2017-07-31T05:22:47.369Z,62.10
2017-07-31T05:25:17.383Z,61.90
2017-07-31T05:27:45.629Z,61.90
2017-07-31T05:30:14.703Z,61.90
2017-07-31T05:32:43.722Z,61.80
2017-07-31T05:35:11.968Z,61.80
2017-07-31T05:37:40.243Z,61.80
2017-07-31T05:40:08.493Z,61.90
2017-07-31T05:42:36.783Z,61.80
2017-07-31T05:45:05.107Z,62.00
2017-07-31T05:47:33.390Z,61.90
2017-07-31T05:50:01.670Z,62.30
2017-07-31T05:52:30.306Z,62.10
2017-07-31T05:54:58.402Z,62.00
2017-07-31T05:57:26.653Z,62.00
2017-07-31T05:59:54.925Z,62.10
2017-07-31T06:02:23.173Z,62.10
2017-07-31T06:04:51.429Z,62.00
2017-07-31T06:07:19.735Z,62.10
2017-07-31T06:09:47.998Z,62.10
2017-07-31T06:12:16.249Z,62.10
2017-07-31T06:14:45.301Z,62.30
2017-07-31T06:17:13.586Z,62.30
2017-07-31T06:19:42.596Z,62.30
2017-07-31T06:22:10.665Z,62.30
2017-07-31T06:24:38.914Z,62.50
2017-07-31T06:27:07.199Z,62.50
2017-07-31T06:29:35.481Z,62.50
2017-07-31T06:32:03.728Z,62.50
2017-07-31T06:34:32.005Z,62.60
2017-07-31T06:37:01.054Z,62.50
2017-07-31T06:39:29.335Z,62.50
2017-07-31T06:41:57.623Z,62.40
2017-07-31T06:44:25.921Z,62.30
2017-07-31T06:46:54.160Z,62.20
2017-07-31T06:49:22.448Z,62.10
2017-07-31T06:51:50.709Z,62.00
2017-07-31T06:54:18.958Z,62.00
2017-07-31T06:56:47.200Z,62.00
2017-07-31T06:59:15.477Z,61.90
2017-07-31T07:01:43.721Z,61.80
2017-07-31T07:04:12.010Z,61.80
2017-07-31T07:06:40.283Z,61.70
2017-07-31T07:09:08.533Z,61.70
2017-07-31T07:11:36.801Z,61.70
2017-07-31T07:14:05.090Z,61.60
2017-07-31T07:16:34.134Z,61.60
2017-07-31T07:19:02.380Z,61.60
2017-07-31T07:21:30.490Z,61.50
2017-07-31T07:23:58.745Z,61.50
2017-07-31T07:26:27.783Z,61.50
2017-07-31T07:28:56.427Z,61.40
2017-07-31T07:31:24.674Z,61.40
2017-07-31T07:33:52.959Z,61.30
2017-07-31T07:36:21.229Z,61.40
2017-07-31T07:38:49.476Z,62.00
2017-07-31T07:41:17.748Z,61.30
2017-07-31T07:43:46.061Z,61.30
2017-07-31T07:46:14.308Z,61.30
2017-07-31T07:48:43.357Z,61.20
2017-07-31T07:51:11.666Z,61.20
2017-07-31T07:53:39.963Z,61.30
2017-07-31T07:56:08.252Z,61.10
2017-07-31T07:58:36.547Z,61.20
2017-07-31T08:01:04.825Z,61.20
2017-07-31T08:03:33.075Z,61.10
2017-07-31T08:06:01.385Z,61.20
2017-07-31T08:08:29.674Z,61.20
2017-07-31T08:10:57.953Z,61.10
2017-07-31T08:13:26.266Z,61.10
2017-07-31T08:15:54.523Z,61.10
2017-07-31T08:18:22.769Z,61.80
2017-07-31T08:20:51.071Z,61.10
2017-07-31T08:23:20.089Z,61.10
2017-07-31T08:25:48.348Z,61.10
2017-07-31T08:28:16.613Z,61.10
2017-07-31T08:30:44.971Z,61.10
2017-07-31T08:33:13.212Z,61.00
2017-07-31T08:35:41.489Z,61.00
2017-07-31T08:38:09.762Z,61.00
2017-07-31T08:40:38.010Z,61.00
2017-07-31T08:43:06.281Z,60.90
2017-07-31T08:45:34.524Z,60.90
2017-07-31T08:48:02.810Z,61.00
2017-07-31T08:50:31.113Z,61.00
2017-07-31T08:52:59.208Z,61.00
2017-07-31T08:55:27.467Z,61.00
2017-07-31T08:57:55.762Z,60.90
2017-07-31T09:00:24.013Z,60.90
2017-07-31T09:02:52.264Z,60.90
2017-07-31T09:05:20.556Z,60.90
2017-07-31T09:07:49.597Z,60.90
2017-07-31T09:10:17.849Z,60.80
2017-07-31T09:12:46.285Z,60.80
2017-07-31T09:15:14.592Z,60.90
2017-07-31T09:17:42.844Z,60.90
2017-07-31T09:20:11.143Z,60.90
2017-07-31T09:22:40.196Z,60.90
2017-07-31T09:25:08.445Z,60.80
2017-07-31T09:27:36.713Z,60.80
2017-07-31T09:30:04.965Z,60.80
2017-07-31T09:32:33.241Z,60.80
2017-07-31T09:35:02.345Z,60.80
2017-07-31T09:37:30.589Z,60.80
2017-07-31T09:39:59.645Z,60.90
2017-07-31T09:42:27.904Z,60.80
2017-07-31T09:44:56.191Z,60.60
2017-07-31T09:47:25.204Z,60.80
2017-07-31T09:49:53.465Z,60.80
2017-07-31T09:52:21.713Z,60.90
2017-07-31T09:54:50.589Z,61.10
2017-07-31T09:57:18.868Z,61.20
2017-07-31T09:59:47.156Z,61.20
2017-07-31T10:02:16.312Z,61.20
2017-07-31T10:04:44.593Z,61.20
2017-07-31T10:07:12.884Z,61.20
2017-07-31T10:09:41.134Z,61.40
2017-07-31T10:12:10.169Z,61.00
2017-07-31T10:14:38.451Z,61.30
2017-07-31T10:17:06.748Z,61.30
2017-07-31T10:19:35.078Z,61.20
2017-07-31T10:22:03.331Z,61.10
2017-07-31T10:24:31.605Z,61.10
2017-07-31T10:26:59.865Z,61.10
2017-07-31T10:29:28.117Z,61.10
2017-07-31T10:31:56.402Z,61.10
2017-07-31T10:34:24.672Z,61.10
2017-07-31T10:36:52.958Z,61.10
2017-07-31T10:39:21.243Z,61.10
2017-07-31T10:41:49.549Z,61.00
2017-07-31T10:44:17.797Z,61.00
2017-07-31T10:46:46.825Z,61.10
2017-07-31T10:49:15.101Z,61.00
2017-07-31T10:51:43.353Z,61.10
2017-07-31T10:54:11.647Z,61.00
2017-07-31T10:56:40.719Z,61.00
2017-07-31T10:59:09.002Z,61.00
2017-07-31T11:01:37.256Z,61.00
2017-07-31T11:04:06.308Z,61.00
2017-07-31T11:06:34.614Z,60.90
2017-07-31T11:09:02.952Z,60.90
2017-07-31T11:11:32.018Z,60.90
2017-07-31T11:14:00.273Z,60.90
2017-07-31T11:16:28.552Z,60.90
2017-07-31T11:18:57.631Z,61.00
2017-07-31T11:21:26.695Z,60.90
2017-07-31T11:23:55.837Z,61.10
2017-07-31T11:26:24.146Z,60.80
2017-07-31T11:28:53.193Z,60.90
2017-07-31T11:31:21.454Z,60.90
2017-07-31T11:33:49.749Z,60.90
2017-07-31T11:36:18.787Z,60.80
2017-07-31T11:38:47.104Z,60.80
2017-07-31T11:41:15.410Z,60.80
2017-07-31T11:43:43.693Z,60.80
2017-07-31T11:46:11.982Z,60.80
2017-07-31T11:48:40.248Z,60.90
2017-07-31T11:51:08.493Z,60.90
2017-07-31T11:53:36.771Z,60.90
2017-07-31T11:56:05.071Z,60.90
2017-07-31T11:58:33.325Z,60.90
2017-07-31T12:01:02.036Z,60.90
2017-07-31T12:03:30.320Z,60.80
2017-07-31T12:05:58.577Z,60.80
2017-07-31T12:08:26.847Z,60.90
2017-07-31T12:10:55.124Z,60.90
2017-07-31T12:13:23.445Z,60.90
2017-07-31T12:15:51.719Z,60.90
2017-07-31T12:18:20.022Z,61.00
2017-07-31T12:20:48.288Z,60.90
2017-07-31T12:23:16.541Z,60.90
2017-07-31T12:25:44.843Z,60.90
2017-07-31T12:28:13.894Z,60.90
2017-07-31T12:30:43.375Z,60.80
2017-07-31T12:33:12.000Z,60.90
2017-07-31T12:35:40.279Z,60.80
2017-07-31T12:38:08.550Z,60.80
2017-07-31T12:40:36.821Z,60.80
2017-07-31T12:43:05.111Z,60.80
2017-07-31T12:45:34.164Z,60.90
2017-07-31T12:48:02.458Z,60.80
2017-07-31T12:50:30.741Z,60.80
2017-07-31T12:52:58.988Z,60.80
2017-07-31T12:55:27.290Z,60.90
2017-07-31T12:57:55.541Z,60.80
2017-07-31T13:00:23.833Z,60.80
2017-07-31T13:02:52.869Z,60.80
2017-07-31T13:05:21.116Z,60.80
2017-07-31T13:07:49.372Z,60.90
2017-07-31T13:10:17.665Z,60.90
2017-07-31T13:12:45.965Z,60.90
2017-07-31T13:15:14.696Z,60.90
2017-07-31T13:17:42.820Z,60.90
2017-07-31T13:20:11.082Z,60.80
2017-07-31T13:22:39.371Z,60.90
2017-07-31T13:25:07.685Z,60.80
2017-07-31T13:27:35.957Z,60.80
2017-07-31T13:30:04.205Z,60.80
2017-07-31T13:32:32.501Z,60.80
2017-07-31T13:35:00.749Z,60.80
2017-07-31T13:37:29.095Z,60.80
2017-07-31T13:39:57.388Z,60.80
2017-07-31T13:42:25.635Z,60.80
2017-07-31T13:44:53.918Z,60.80
2017-07-31T13:47:22.230Z,60.80
2017-07-31T13:49:50.481Z,60.80
2017-07-31T13:52:18.772Z,60.80
2017-07-31T13:54:47.056Z,60.80
2017-07-31T13:57:15.339Z,60.80
2017-07-31T13:59:43.646Z,60.90
2017-07-31T14:02:12.011Z,60.80
2017-07-31T14:04:40.322Z,60.80
2017-07-31T14:07:08.602Z,60.70
2017-07-31T14:09:37.663Z,60.70
2017-07-31T14:12:05.912Z,60.70
2017-07-31T14:14:34.196Z,60.70
2017-07-31T14:17:03.223Z,60.70
2017-07-31T14:19:31.471Z,60.60
2017-07-31T14:21:59.716Z,60.60
2017-07-31T14:24:28.010Z,60.60
2017-07-31T14:26:56.296Z,60.60
2017-07-31T14:29:24.583Z,60.60
2017-07-31T14:31:52.845Z,60.70
2017-07-31T14:34:21.126Z,60.60
2017-07-31T14:36:49.398Z,60.60
2017-07-31T14:39:17.523Z,60.60
2017-07-31T14:41:45.772Z,60.70
2017-07-31T14:44:14.068Z,60.60
2017-07-31T14:46:42.353Z,60.70
2017-07-31T14:49:10.611Z,60.60
2017-07-31T14:51:38.861Z,61.40
2017-07-31T14:54:07.136Z,62.10
2017-07-31T14:56:35.414Z,62.30
2017-07-31T14:59:04.467Z,63.60
2017-07-31T15:01:32.737Z,63.10
2017-07-31T15:04:00.985Z,63.50
2017-07-31T15:06:29.263Z,64.60
2017-07-31T15:08:57.565Z,64.20
2017-07-31T15:11:25.826Z,64.50
2017-07-31T15:13:54.076Z,64.70
2017-07-31T15:16:22.369Z,64.90
2017-07-31T15:18:50.618Z,65.10
2017-07-31T15:21:18.906Z,65.20
2017-07-31T15:23:47.390Z,65.30
2017-07-31T15:26:15.683Z,65.30
2017-07-31T15:28:44.027Z,65.40
2017-07-31T15:31:13.105Z,65.60
2017-07-31T15:33:42.161Z,65.70
2017-07-31T15:36:10.451Z,65.70
2017-07-31T15:38:39.535Z,65.90
2017-07-31T15:41:07.819Z,65.90
2017-07-31T15:43:36.064Z,66.00
2017-07-31T15:46:04.371Z,65.90
2017-07-31T15:48:32.653Z,65.80
2017-07-31T15:51:00.742Z,65.70
2017-07-31T15:53:29.069Z,65.70
2017-07-31T15:55:58.097Z,65.60
2017-07-31T15:58:26.425Z,65.60
2017-07-31T16:00:55.488Z,65.60
2017-07-31T16:03:24.550Z,65.90
2017-07-31T16:05:52.811Z,65.80
2017-07-31T16:08:21.115Z,65.80
2017-07-31T16:10:49.363Z,65.60
2017-07-31T16:13:17.651Z,65.40
2017-07-31T16:15:45.995Z,65.50
2017-07-31T16:18:14.286Z,65.50
2017-07-31T16:20:42.529Z,65.50
2017-07-31T16:23:10.798Z,65.50
2017-07-31T16:25:39.083Z,65.70
2017-07-31T16:28:07.376Z,65.70
2017-07-31T16:30:36.438Z,66.00
2017-07-31T16:33:04.689Z,66.00
2017-07-31T16:35:32.945Z,65.90
2017-07-31T16:38:00.738Z,65.80
2017-07-31T16:40:35.365Z,65.80
2017-07-31T16:43:24.870Z,65.70
2017-07-31T16:45:52.777Z,65.60
2017-07-31T16:48:31.190Z,65.50
2017-07-31T16:50:59.482Z,65.60
2017-07-31T16:53:28.502Z,65.80
2017-07-31T16:55:56.780Z,65.60
2017-07-31T16:58:25.059Z,65.70
2017-07-31T17:00:53.309Z,65.70
2017-07-31T17:03:21.581Z,65.70
2017-07-31T17:05:49.844Z,65.70
2017-07-31T17:08:18.126Z,65.70
2017-07-31T17:10:47.165Z,65.70
2017-07-31T17:13:15.445Z,65.70
2017-07-31T17:15:43.741Z,65.80
2017-07-31T17:18:12.063Z,65.80
2017-07-31T17:20:40.358Z,65.90
2017-07-31T17:23:08.651Z,65.90
2017-07-31T17:25:36.925Z,65.90
2017-07-31T17:28:05.214Z,65.90
2017-07-31T17:30:33.463Z,65.90
2017-07-31T17:33:01.759Z,66.00
2017-07-31T17:35:30.046Z,66.00
2017-07-31T17:37:58.334Z,66.00
2017-07-31T17:40:26.626Z,66.00
2017-07-31T17:42:55.609Z,66.00
2017-07-31T17:45:24.622Z,66.10
2017-07-31T17:47:52.934Z,66.00
2017-07-31T17:50:21.950Z,66.00
2017-07-31T17:52:50.234Z,66.00
2017-07-31T17:55:18.592Z,66.00
2017-07-31T17:57:46.840Z,66.00
2017-07-31T18:00:15.131Z,66.00
2017-07-31T18:02:43.417Z,66.00
2017-07-31T18:05:12.429Z,66.10
2017-07-31T18:07:40.677Z,66.10
2017-07-31T18:10:08.935Z,66.20
2017-07-31T18:12:36.997Z,66.20
2017-07-31T18:15:05.248Z,66.10
2017-07-31T18:17:33.513Z,66.10
2017-07-31T18:20:01.803Z,66.10
2017-07-31T18:22:30.096Z,66.10
2017-07-31T18:24:58.220Z,66.00
2017-07-31T18:27:26.480Z,65.90
2017-07-31T18:29:54.772Z,66.00
2017-07-31T18:32:22.882Z,66.00
2017-07-31T18:34:51.179Z,66.10
2017-07-31T18:37:19.240Z,66.10
2017-07-31T18:39:47.546Z,66.10
2017-07-31T18:42:15.788Z,66.20
2017-07-31T18:44:44.085Z,66.20
2017-07-31T18:47:12.202Z,66.40
2017-07-31T18:49:41.219Z,66.60
2017-07-31T18:52:09.311Z,66.60
2017-07-31T18:54:37.610Z,66.50
2017-07-31T18:57:05.894Z,66.60
2017-07-31T18:59:34.142Z,66.70
2017-07-31T19:02:02.422Z,66.80
2017-07-31T19:04:30.669Z,66.80
2017-07-31T19:06:58.965Z,66.80
2017-07-31T19:09:27.104Z,66.80
2017-07-31T19:11:55.393Z,66.90
2017-07-31T19:14:24.522Z,66.90
2017-07-31T19:16:52.900Z,66.90
2017-07-31T19:19:21.178Z,67.00
2017-07-31T19:21:49.429Z,67.10
2017-07-31T19:24:17.702Z,67.10
2017-07-31T19:26:45.956Z,67.20
2017-07-31T19:29:14.241Z,67.10
2017-07-31T19:31:43.344Z,67.10
2017-07-31T19:34:11.494Z,67.10
2017-07-31T19:36:39.748Z,67.10
2017-07-31T19:39:08.802Z,67.10
2017-07-31T19:41:37.068Z,67.10
2017-07-31T19:44:05.324Z,67.10
2017-07-31T19:46:33.599Z,67.00
2017-07-31T19:49:02.647Z,67.00
2017-07-31T19:51:30.905Z,67.00
2017-07-31T19:53:59.228Z,66.90
2017-07-31T19:56:27.601Z,66.90
2017-07-31T19:58:55.883Z,66.90
2017-07-31T20:01:24.001Z,66.90
2017-07-31T20:03:52.252Z,66.90
2017-07-31T20:06:20.538Z,66.90
2017-07-31T20:08:48.808Z,66.90
2017-07-31T20:11:17.089Z,66.90
2017-07-31T20:13:45.339Z,66.90
2017-07-31T20:16:13.625Z,67.10
2017-07-31T20:18:41.905Z,60.40
2017-07-31T20:21:10.870Z,56.40
2017-07-31T20:23:39.962Z,58.60
2017-07-31T20:26:08.215Z,58.00
2017-07-31T20:28:37.065Z,59.10
2017-07-31T20:31:05.324Z,59.10
2017-07-31T20:33:33.573Z,59.90
2017-07-31T20:36:02.098Z,60.40
2017-07-31T20:38:30.184Z,60.40
2017-07-31T20:40:58.469Z,61.30
2017-07-31T20:43:26.714Z,61.50
2017-07-31T20:45:55.002Z,61.70
2017-07-31T20:48:24.046Z,62.40
2017-07-31T20:50:52.335Z,62.40
2017-07-31T20:53:21.398Z,62.70
2017-07-31T20:55:49.682Z,62.60
2017-07-31T20:58:18.716Z,61.50
2017-07-31T21:00:47.033Z,61.40
2017-07-31T21:03:15.287Z,62.20
2017-07-31T21:05:43.544Z,62.50
2017-07-31T21:08:12.682Z,62.00
2017-07-31T21:10:40.999Z,62.00
2017-07-31T21:13:09.286Z,62.00
2017-07-31T21:15:37.749Z,62.10
2017-07-31T21:18:06.004Z,63.30
2017-07-31T21:20:34.168Z,63.60
2017-07-31T21:23:02.464Z,63.90
2017-07-31T21:25:30.732Z,64.30
2017-07-31T21:27:59.806Z,64.30
2017-07-31T21:30:28.072Z,64.30
2017-07-31T21:32:57.124Z,64.10
2017-07-31T21:35:25.412Z,64.10
2017-07-31T21:37:54.486Z,64.60
2017-07-31T21:40:23.508Z,65.00
2017-07-31T21:42:51.748Z,65.00
2017-07-31T21:45:20.061Z,65.10
2017-07-31T21:47:48.310Z,65.10
2017-07-31T21:50:16.559Z,65.10
2017-07-31T21:52:44.861Z,65.10
2017-07-31T21:55:13.910Z,65.70
2017-07-31T21:57:42.149Z,65.50
2017-07-31T22:00:10.780Z,65.50
2017-07-31T22:02:39.826Z,66.00
2017-07-31T22:05:08.166Z,66.00
2017-07-31T22:07:36.441Z,66.40
2017-07-31T22:10:04.697Z,66.10
2017-07-31T22:12:33.000Z,65.90
2017-07-31T22:15:02.041Z,65.70
2017-07-31T22:17:35.966Z,65.60
2017-07-31T22:20:04.829Z,66.30
2017-07-31T22:22:33.883Z,66.70
2017-07-31T22:25:02.162Z,66.30
2017-07-31T22:27:30.449Z,65.70
2017-07-31T22:29:58.697Z,65.00
2017-07-31T22:32:27.701Z,64.00
2017-07-31T22:34:57.416Z,63.60
2017-07-31T22:37:25.664Z,63.60
2017-07-31T22:39:53.912Z,63.30
2017-07-31T22:42:22.223Z,62.00
2017-07-31T22:44:50.501Z,62.10
2017-07-31T22:47:19.550Z,64.20
2017-07-31T22:49:47.828Z,64.10
2017-07-31T22:52:16.882Z,66.10
2017-07-31T22:54:45.126Z,65.50
2017-07-31T22:57:13.387Z,65.70
2017-07-31T22:59:41.679Z,66.00
2017-07-31T23:02:09.975Z,66.20
2017-07-31T23:04:38.536Z,66.60
2017-07-31T23:07:07.582Z,66.90
2017-07-31T23:09:35.833Z,66.80
2017-07-31T23:12:04.117Z,66.70
2017-07-31T23:14:33.167Z,67.20
2017-07-31T23:17:01.418Z,67.30
2017-07-31T23:19:29.718Z,67.80
2017-07-31T23:21:58.734Z,68.10
2017-07-31T23:24:26.980Z,68.20
2017-07-31T23:26:55.252Z,66.60
2017-07-31T23:29:23.537Z,66.30
2017-07-31T23:31:51.825Z,66.70
2017-07-31T23:34:20.868Z,67.10
2017-07-31T23:36:49.150Z,66.70
2017-07-31T23:39:17.434Z,67.10
2017-07-31T23:41:46.563Z,66.90
2017-07-31T23:44:14.822Z,66.80
2017-07-31T23:46:43.080Z,66.60
2017-07-31T23:49:11.383Z,65.70
2017-07-31T23:51:40.440Z,64.70
2017-07-31T23:54:08.729Z,65.30
2017-07-31T23:56:37.802Z,64.00
2017-07-31T23:59:06.858Z,64.40
